sensor_id;sensor_type;location;lat;lon;timestamp;P1;durP1;ratioP1;P2;durP2;ratioP2
40555;SDS011;26250;45.422;11.100;2023-05-18T09:00:15;3.00;;;0.82;;
40555;SDS011;26250;45.422;11.100;2023-05-18T09:02:43;1.52;;;1.17;;
40555;SDS011;26250;45.422;11.100;2023-05-18T09:05:12;14.02;;;2.10;;
40555;SDS011;26250;45.422;11.100;2023-05-18T09:07:40;3.00;;;1.15;;
40555;SDS011;26250;45.422;11.100;2023-05-18T09:10:09;3.20;;;1.40;;
40555;SDS011;26250;45.422;11.100;2023-05-18T09:12:37;2.40;;;1.15;;
40555;SDS011;26250;45.422;11.100;2023-05-18T09:15:09;1.08;;;1.00;;
40555;SDS011;26250;45.422;11.100;2023-05-18T09:17:37;4.38;;;1.45;;
40555;SDS011;26250;45.422;11.100;2023-05-18T09:20:05;2.22;;;1.50;;
40555;SDS011;26250;45.422;11.100;2023-05-18T09:22:33;5.35;;;1.50;;
40555;SDS011;26250;45.422;11.100;2023-05-18T09:25:08;2.10;;;1.27;;
40555;SDS011;26250;45.422;11.100;2023-05-18T09:27:39;3.33;;;1.65;;
40555;SDS011;26250;45.422;11.100;2023-05-18T09:30:08;2.00;;;1.30;;
40555;SDS011;26250;45.422;11.100;2023-05-18T09:32:37;2.60;;;1.45;;
40555;SDS011;26250;45.422;11.100;2023-05-18T09:35:07;1.23;;;1.13;;
40555;SDS011;26250;45.422;11.100;2023-05-18T09:37:34;1.90;;;1.75;;
40555;SDS011;26250;45.422;11.100;2023-05-18T09:40:03;2.17;;;1.40;;
40555;SDS011;26250;45.422;11.100;2023-05-18T09:42:37;1.85;;;1.40;;
40555;SDS011;26250;45.422;11.100;2023-05-18T09:45:18;3.72;;;1.70;;
40555;SDS011;26250;45.422;11.100;2023-05-18T09:47:49;4.57;;;1.38;;
40555;SDS011;26250;45.422;11.100;2023-05-18T09:50:20;3.42;;;1.58;;
40555;SDS011;26250;45.422;11.100;2023-05-18T09:52:49;4.57;;;1.65;;
40555;SDS011;26250;45.422;11.100;2023-05-18T09:55:16;2.83;;;1.83;;
40555;SDS011;26250;45.422;11.100;2023-05-18T09:57:45;6.60;;;1.17;;
40555;SDS011;26250;45.422;11.100;2023-05-18T10:00:14;3.28;;;1.45;;
40555;SDS011;26250;45.422;11.100;2023-05-18T10:02:45;2.75;;;1.20;;
40555;SDS011;26250;45.422;11.100;2023-05-18T10:05:21;2.28;;;1.20;;
40555;SDS011;26250;45.422;11.100;2023-05-18T10:08:02;2.17;;;1.60;;
40555;SDS011;26250;45.422;11.100;2023-05-18T10:10:28;5.13;;;2.25;;
40555;SDS011;26250;45.422;11.100;2023-05-18T10:12:56;2.30;;;1.35;;
40555;SDS011;26250;45.422;11.100;2023-05-18T10:15:23;4.57;;;2.17;;
40555;SDS011;26250;45.422;11.100;2023-05-18T10:17:54;3.60;;;1.50;;
40555;SDS011;26250;45.422;11.100;2023-05-18T10:20:23;3.13;;;1.77;;
40555;SDS011;26250;45.422;11.100;2023-05-18T10:22:53;2.17;;;1.20;;
40555;SDS011;26250;45.422;11.100;2023-05-18T10:25:22;2.88;;;0.95;;
40555;SDS011;26250;45.422;11.100;2023-05-18T10:27:54;1.23;;;1.13;;
40555;SDS011;26250;45.422;11.100;2023-05-18T10:30:22;3.60;;;1.65;;
40555;SDS011;26250;45.422;11.100;2023-05-18T10:32:50;6.85;;;1.73;;
40555;SDS011;26250;45.422;11.100;2023-05-18T10:35:19;5.82;;;1.67;;
40555;SDS011;26250;45.422;11.100;2023-05-18T10:37:48;1.67;;;1.15;;
40555;SDS011;26250;45.422;11.100;2023-05-18T10:40:18;2.72;;;1.33;;
40555;SDS011;26250;45.422;11.100;2023-05-18T10:42:46;1.50;;;1.40;;
40555;SDS011;26250;45.422;11.100;2023-05-18T10:45:15;3.63;;;1.70;;
40555;SDS011;26250;45.422;11.100;2023-05-18T10:47:43;1.50;;;1.40;;
40555;SDS011;26250;45.422;11.100;2023-05-18T10:50:10;1.92;;;1.42;;
40555;SDS011;26250;45.422;11.100;2023-05-18T10:52:38;2.88;;;1.52;;
40555;SDS011;26250;45.422;11.100;2023-05-18T10:55:06;2.05;;;1.08;;
40555;SDS011;26250;45.422;11.100;2023-05-18T10:57:36;1.77;;;1.67;;
40555;SDS011;26250;45.422;11.100;2023-05-18T11:00:06;2.90;;;1.70;;
40555;SDS011;26250;45.422;11.100;2023-05-18T11:02:38;1.95;;;1.55;;
40555;SDS011;26250;45.422;11.100;2023-05-18T11:05:08;2.08;;;1.10;;
40555;SDS011;26250;45.422;11.100;2023-05-18T11:07:36;2.00;;;1.50;;
40555;SDS011;26250;45.422;11.100;2023-05-18T11:10:08;3.70;;;1.50;;
40555;SDS011;26250;45.422;11.100;2023-05-18T11:12:37;2.40;;;1.60;;
40555;SDS011;26250;45.422;11.100;2023-05-18T11:15:06;3.08;;;2.25;;
40555;SDS011;26250;45.422;11.100;2023-05-18T11:17:33;10.50;;;2.15;;
40555;SDS011;26250;45.422;11.100;2023-05-18T11:22:51;2.40;;;1.38;;
40555;SDS011;26250;45.422;11.100;2023-05-18T11:28:04;4.68;;;2.50;;
40555;SDS011;26250;45.422;11.100;2023-05-18T11:35:54;1.75;;;1.65;;
40555;SDS011;26250;45.422;11.100;2023-05-18T11:41:37;2.97;;;1.50;;
40555;SDS011;26250;45.422;11.100;2023-05-18T11:49:20;2.25;;;1.90;;
40555;SDS011;26250;45.422;11.100;2023-05-18T11:57:24;5.85;;;1.52;;
40555;SDS011;26250;45.422;11.100;2023-05-18T11:59:55;2.20;;;1.65;;
40555;SDS011;26250;45.422;11.100;2023-05-18T12:02:24;2.47;;;1.92;;
40555;SDS011;26250;45.422;11.100;2023-05-18T12:04:53;2.70;;;1.25;;
40555;SDS011;26250;45.422;11.100;2023-05-18T12:07:25;5.15;;;1.73;;
40555;SDS011;26250;45.422;11.100;2023-05-18T12:09:58;2.85;;;2.13;;
40555;SDS011;26250;45.422;11.100;2023-05-18T12:12:33;3.65;;;1.60;;
40555;SDS011;26250;45.422;11.100;2023-05-18T12:15:01;4.03;;;2.08;;
40555;SDS011;26250;45.422;11.100;2023-05-18T12:17:39;1.75;;;1.50;;
40555;SDS011;26250;45.422;11.100;2023-05-18T12:20:09;2.65;;;1.63;;
40555;SDS011;26250;45.422;11.100;2023-05-18T12:22:41;1.95;;;1.67;;
40555;SDS011;26250;45.422;11.100;2023-05-18T12:25:09;2.22;;;1.60;;
40555;SDS011;26250;45.422;11.100;2023-05-18T12:27:37;3.80;;;1.65;;
40555;SDS011;26250;45.422;11.100;2023-05-18T12:30:09;6.00;;;2.58;;
40555;SDS011;26250;45.422;11.100;2023-05-18T12:32:43;2.83;;;1.42;;
40555;SDS011;26250;45.422;11.100;2023-05-18T12:35:26;3.47;;;1.27;;
40555;SDS011;26250;45.422;11.100;2023-05-18T12:37:55;4.07;;;1.42;;
40555;SDS011;26250;45.422;11.100;2023-05-18T12:40:25;2.10;;;1.90;;
40555;SDS011;26250;45.422;11.100;2023-05-18T12:42:56;2.75;;;1.55;;
40555;SDS011;26250;45.422;11.100;2023-05-18T12:45:25;5.25;;;1.92;;
40555;SDS011;26250;45.422;11.100;2023-05-18T12:48:03;7.03;;;2.63;;
40555;SDS011;26250;45.422;11.100;2023-05-18T12:50:46;6.25;;;2.00;;
40555;SDS011;26250;45.422;11.100;2023-05-18T12:53:15;4.75;;;2.20;;
40555;SDS011;26250;45.422;11.100;2023-05-18T12:55:43;9.75;;;2.80;;
40555;SDS011;26250;45.422;11.100;2023-05-18T12:58:11;1.63;;;1.30;;
40555;SDS011;26250;45.422;11.100;2023-05-18T13:00:46;10.07;;;1.67;;
40555;SDS011;26250;45.422;11.100;2023-05-18T13:03:14;1.40;;;1.30;;
40555;SDS011;26250;45.422;11.100;2023-05-18T13:05:44;2.65;;;1.55;;
40555;SDS011;26250;45.422;11.100;2023-05-18T13:08:18;1.48;;;1.25;;
40555;SDS011;26250;45.422;11.100;2023-05-18T13:10:48;2.00;;;1.58;;
40555;SDS011;26250;45.422;11.100;2023-05-18T13:13:34;1.85;;;1.65;;
40555;SDS011;26250;45.422;11.100;2023-05-18T13:16:01;2.70;;;1.90;;
40555;SDS011;26250;45.422;11.100;2023-05-18T13:18:28;2.97;;;1.35;;
40555;SDS011;26250;45.422;11.100;2023-05-18T13:20:55;10.18;;;2.65;;
40555;SDS011;26250;45.422;11.100;2023-05-18T13:23:25;1.75;;;1.25;;
40555;SDS011;26250;45.422;11.100;2023-05-18T13:25:53;1.35;;;1.23;;
40555;SDS011;26250;45.422;11.100;2023-05-18T13:28:24;2.47;;;1.40;;
40555;SDS011;26250;45.422;11.100;2023-05-18T13:30:54;3.17;;;1.92;;
40555;SDS011;26250;45.422;11.100;2023-05-18T13:33:21;2.33;;;1.40;;
40555;SDS011;26250;45.422;11.100;2023-05-18T13:35:49;3.25;;;1.52;;
40555;SDS011;26250;45.422;11.100;2023-05-18T13:38:16;4.93;;;1.80;;
40555;SDS011;26250;45.422;11.100;2023-05-18T13:40:43;1.23;;;1.00;;
40555;SDS011;26250;45.422;11.100;2023-05-18T13:43:11;5.50;;;1.48;;
40555;SDS011;26250;45.422;11.100;2023-05-18T13:45:40;3.22;;;1.30;;
40555;SDS011;26250;45.422;11.100;2023-05-18T13:48:07;2.65;;;1.00;;
40555;SDS011;26250;45.422;11.100;2023-05-18T13:50:36;0.80;;;0.80;;
40555;SDS011;26250;45.422;11.100;2023-05-18T13:53:03;5.93;;;1.33;;
40555;SDS011;26250;45.422;11.100;2023-05-18T13:55:31;5.10;;;1.38;;
40555;SDS011;26250;45.422;11.100;2023-05-18T13:57:59;9.02;;;1.30;;
40555;SDS011;26250;45.422;11.100;2023-05-18T14:00:26;1.13;;;0.90;;
40555;SDS011;26250;45.422;11.100;2023-05-18T14:02:56;1.05;;;1.00;;
40555;SDS011;26250;45.422;11.100;2023-05-18T14:05:23;1.35;;;0.90;;
40555;SDS011;26250;45.422;11.100;2023-05-18T14:07:50;1.25;;;1.15;;
40555;SDS011;26250;45.422;11.100;2023-05-18T14:10:17;3.05;;;1.13;;
40555;SDS011;26250;45.422;11.100;2023-05-18T14:12:45;1.25;;;1.15;;
40555;SDS011;26250;45.422;11.100;2023-05-18T14:15:12;1.85;;;1.05;;
40555;SDS011;26250;45.422;11.100;2023-05-18T14:17:40;0.82;;;0.82;;
40555;SDS011;26250;45.422;11.100;2023-05-18T14:20:08;3.47;;;1.27;;
40555;SDS011;26250;45.422;11.100;2023-05-18T14:22:36;3.25;;;1.13;;
40555;SDS011;26250;45.422;11.100;2023-05-18T14:25:03;1.40;;;0.98;;
40555;SDS011;26250;45.422;11.100;2023-05-18T14:27:31;1.83;;;1.35;;
40555;SDS011;26250;45.422;11.100;2023-05-18T14:29:57;1.77;;;1.17;;
40555;SDS011;26250;45.422;11.100;2023-05-18T14:32:24;3.60;;;1.05;;
40555;SDS011;26250;45.422;11.100;2023-05-18T14:34:51;2.50;;;1.40;;
40555;SDS011;26250;45.422;11.100;2023-05-18T14:37:23;1.80;;;1.15;;
40555;SDS011;26250;45.422;11.100;2023-05-18T14:39:52;2.53;;;1.33;;
40555;SDS011;26250;45.422;11.100;2023-05-18T14:42:19;1.63;;;1.23;;
40555;SDS011;26250;45.422;11.100;2023-05-18T14:44:46;6.20;;;2.85;;
40555;SDS011;26250;45.422;11.100;2023-05-18T14:47:13;1.45;;;1.35;;
40555;SDS011;26250;45.422;11.100;2023-05-18T14:49:40;5.30;;;1.40;;
40555;SDS011;26250;45.422;11.100;2023-05-18T14:52:07;3.45;;;1.55;;
40555;SDS011;26250;45.422;11.100;2023-05-18T14:54:33;12.93;;;2.97;;
40555;SDS011;26250;45.422;11.100;2023-05-18T14:57:01;1.88;;;1.02;;
40555;SDS011;26250;45.422;11.100;2023-05-18T14:59:28;1.90;;;1.02;;
40555;SDS011;26250;45.422;11.100;2023-05-18T15:01:55;2.15;;;1.55;;
40555;SDS011;26250;45.422;11.100;2023-05-18T15:04:22;1.33;;;1.08;;
40555;SDS011;26250;45.422;11.100;2023-05-18T15:06:50;1.38;;;1.02;;
40555;SDS011;26250;45.422;11.100;2023-05-18T15:09:20;2.10;;;1.27;;
40555;SDS011;26250;45.422;11.100;2023-05-18T15:11:49;2.63;;;1.38;;
40555;SDS011;26250;45.422;11.100;2023-05-18T15:14:17;1.90;;;1.45;;
40555;SDS011;26250;45.422;11.100;2023-05-18T15:16:44;3.85;;;1.02;;
40555;SDS011;26250;45.422;11.100;2023-05-18T15:19:12;2.63;;;1.17;;
40555;SDS011;26250;45.422;11.100;2023-05-18T15:21:39;1.42;;;1.13;;
40555;SDS011;26250;45.422;11.100;2023-05-18T15:24:06;1.08;;;0.90;;
40555;SDS011;26250;45.422;11.100;2023-05-18T15:26:33;4.00;;;1.27;;
40555;SDS011;26250;45.422;11.100;2023-05-18T15:29:00;0.80;;;0.80;;
40555;SDS011;26250;45.422;11.100;2023-05-18T15:31:27;1.63;;;1.35;;
40555;SDS011;26250;45.422;11.100;2023-05-18T15:33:54;2.65;;;1.15;;
40555;SDS011;26250;45.422;11.100;2023-05-18T15:36:21;1.42;;;1.33;;
40555;SDS011;26250;45.422;11.100;2023-05-18T15:38:48;1.52;;;1.30;;
40555;SDS011;26250;45.422;11.100;2023-05-18T15:41:15;6.00;;;0.90;;
40555;SDS011;26250;45.422;11.100;2023-05-18T15:43:44;1.67;;;1.35;;
40555;SDS011;26250;45.422;11.100;2023-05-18T15:46:14;5.47;;;1.38;;
40555;SDS011;26250;45.422;11.100;2023-05-18T15:48:41;1.60;;;1.50;;
40555;SDS011;26250;45.422;11.100;2023-05-18T15:51:08;1.25;;;1.08;;
40555;SDS011;26250;45.422;11.100;2023-05-18T15:53:35;1.45;;;1.33;;
40555;SDS011;26250;45.422;11.100;2023-05-18T15:56:01;1.63;;;1.17;;
40555;SDS011;26250;45.422;11.100;2023-05-18T15:58:28;2.17;;;1.50;;
40555;SDS011;26250;45.422;11.100;2023-05-18T16:00:55;1.73;;;1.40;;
40555;SDS011;26250;45.422;11.100;2023-05-18T16:03:22;3.88;;;2.38;;
40555;SDS011;26250;45.422;11.100;2023-05-18T16:05:49;1.20;;;1.10;;
40555;SDS011;26250;45.422;11.100;2023-05-18T16:08:19;1.40;;;1.23;;
40555;SDS011;26250;45.422;11.100;2023-05-18T16:10:46;1.67;;;1.30;;
40555;SDS011;26250;45.422;11.100;2023-05-18T16:13:13;1.00;;;0.98;;
40555;SDS011;26250;45.422;11.100;2023-05-18T16:15:40;1.77;;;1.02;;
40555;SDS011;26250;45.422;11.100;2023-05-18T16:18:07;1.63;;;1.20;;
40555;SDS011;26250;45.422;11.100;2023-05-18T16:20:34;2.60;;;1.17;;
40555;SDS011;26250;45.422;11.100;2023-05-18T16:23:01;0.88;;;0.88;;
40555;SDS011;26250;45.422;11.100;2023-05-18T16:25:28;1.73;;;1.40;;
40555;SDS011;26250;45.422;11.100;2023-05-18T16:27:54;1.88;;;1.40;;
40555;SDS011;26250;45.422;11.100;2023-05-18T16:30:22;1.90;;;1.52;;
40555;SDS011;26250;45.422;11.100;2023-05-18T16:32:49;1.63;;;1.45;;
40555;SDS011;26250;45.422;11.100;2023-05-18T16:35:15;0.80;;;0.80;;
40555;SDS011;26250;45.422;11.100;2023-05-18T16:37:42;2.25;;;1.13;;
40555;SDS011;26250;45.422;11.100;2023-05-18T16:40:09;5.40;;;1.73;;
40555;SDS011;26250;45.422;11.100;2023-05-18T16:42:37;1.30;;;1.20;;
40555;SDS011;26250;45.422;11.100;2023-05-18T16:45:04;1.42;;;1.00;;
40555;SDS011;26250;45.422;11.100;2023-05-18T16:47:31;1.90;;;1.33;;
40555;SDS011;26250;45.422;11.100;2023-05-18T16:49:58;2.47;;;1.77;;
40555;SDS011;26250;45.422;11.100;2023-05-18T16:52:26;1.75;;;1.42;;
40555;SDS011;26250;45.422;11.100;2023-05-18T16:54:53;1.13;;;0.95;;
40555;SDS011;26250;45.422;11.100;2023-05-18T16:57:20;4.38;;;1.30;;
40555;SDS011;26250;45.422;11.100;2023-05-18T16:59:47;3.10;;;1.77;;
40555;SDS011;26250;45.422;11.100;2023-05-18T17:02:14;1.88;;;1.52;;
40555;SDS011;26250;45.422;11.100;2023-05-18T17:04:43;1.10;;;0.90;;
40555;SDS011;26250;45.422;11.100;2023-05-18T17:07:15;1.90;;;1.40;;
40555;SDS011;26250;45.422;11.100;2023-05-18T17:09:43;3.00;;;1.38;;
40555;SDS011;26250;45.422;11.100;2023-05-18T17:12:10;3.10;;;1.40;;
40555;SDS011;26250;45.422;11.100;2023-05-18T17:14:37;1.52;;;1.20;;
40555;SDS011;26250;45.422;11.100;2023-05-18T17:17:04;1.45;;;1.35;;
40555;SDS011;26250;45.422;11.100;2023-05-18T17:19:35;4.85;;;1.73;;
40555;SDS011;26250;45.422;11.100;2023-05-18T17:22:04;2.55;;;1.67;;
40555;SDS011;26250;45.422;11.100;2023-05-18T17:24:31;3.45;;;1.95;;
40555;SDS011;26250;45.422;11.100;2023-05-18T17:26:58;7.60;;;2.42;;
40555;SDS011;26250;45.422;11.100;2023-05-18T17:29:25;1.75;;;1.48;;
40555;SDS011;26250;45.422;11.100;2023-05-18T17:31:52;6.93;;;3.03;;
40555;SDS011;26250;45.422;11.100;2023-05-18T17:34:20;4.82;;;2.10;;
40555;SDS011;26250;45.422;11.100;2023-05-18T17:36:50;4.97;;;2.60;;
40555;SDS011;26250;45.422;11.100;2023-05-18T17:39:18;2.80;;;2.25;;
40555;SDS011;26250;45.422;11.100;2023-05-18T17:41:45;2.95;;;2.00;;
40555;SDS011;26250;45.422;11.100;2023-05-18T17:44:12;4.85;;;2.50;;
40555;SDS011;26250;45.422;11.100;2023-05-18T17:46:39;9.18;;;3.90;;
40555;SDS011;26250;45.422;11.100;2023-05-18T17:49:07;6.03;;;5.20;;
40555;SDS011;26250;45.422;11.100;2023-05-18T17:51:34;6.53;;;3.13;;
40555;SDS011;26250;45.422;11.100;2023-05-18T17:54:01;7.63;;;2.45;;
40555;SDS011;26250;45.422;11.100;2023-05-18T17:56:28;7.82;;;2.35;;
40555;SDS011;26250;45.422;11.100;2023-05-18T17:58:56;12.88;;;2.22;;
40555;SDS011;26250;45.422;11.100;2023-05-18T18:03:56;2.78;;;1.38;;
40555;SDS011;26250;45.422;11.100;2023-05-18T18:06:24;2.55;;;1.70;;
40555;SDS011;26250;45.422;11.100;2023-05-18T18:08:54;3.05;;;1.95;;
40555;SDS011;26250;45.422;11.100;2023-05-18T18:11:25;4.05;;;1.90;;
40555;SDS011;26250;45.422;11.100;2023-05-18T18:13:52;4.10;;;1.80;;
40555;SDS011;26250;45.422;11.100;2023-05-18T18:16:19;4.63;;;2.65;;
40555;SDS011;26250;45.422;11.100;2023-05-18T18:18:47;5.22;;;2.10;;
40555;SDS011;26250;45.422;11.100;2023-05-18T18:21:14;2.17;;;1.98;;
40555;SDS011;26250;45.422;11.100;2023-05-18T18:23:41;3.38;;;2.15;;
40555;SDS011;26250;45.422;11.100;2023-05-18T18:26:08;5.88;;;1.70;;
40555;SDS011;26250;45.422;11.100;2023-05-18T18:28:35;11.43;;;2.90;;
40555;SDS011;26250;45.422;11.100;2023-05-18T18:31:02;3.33;;;2.50;;
40555;SDS011;26250;45.422;11.100;2023-05-18T18:33:29;4.53;;;2.50;;
40555;SDS011;26250;45.422;11.100;2023-05-18T18:35:58;5.07;;;2.45;;
40555;SDS011;26250;45.422;11.100;2023-05-18T18:38:25;2.88;;;2.10;;
40555;SDS011;26250;45.422;11.100;2023-05-18T18:40:53;5.07;;;2.63;;
40555;SDS011;26250;45.422;11.100;2023-05-18T18:43:26;5.80;;;2.63;;
40555;SDS011;26250;45.422;11.100;2023-05-18T18:45:53;5.68;;;2.28;;
40555;SDS011;26250;45.422;11.100;2023-05-18T18:48:25;3.88;;;1.98;;
40555;SDS011;26250;45.422;11.100;2023-05-18T18:50:52;7.63;;;2.58;;
40555;SDS011;26250;45.422;11.100;2023-05-18T18:53:19;3.22;;;2.67;;
40555;SDS011;26250;45.422;11.100;2023-05-18T18:55:47;3.20;;;2.17;;
40555;SDS011;26250;45.422;11.100;2023-05-18T18:58:15;5.65;;;2.95;;
40555;SDS011;26250;45.422;11.100;2023-05-18T19:00:42;4.15;;;2.72;;
40555;SDS011;26250;45.422;11.100;2023-05-18T19:03:10;5.68;;;3.20;;
40555;SDS011;26250;45.422;11.100;2023-05-18T19:05:39;10.95;;;2.90;;
40555;SDS011;26250;45.422;11.100;2023-05-18T19:08:07;4.57;;;2.72;;
40555;SDS011;26250;45.422;11.100;2023-05-18T19:10:33;3.60;;;2.70;;
40555;SDS011;26250;45.422;11.100;2023-05-18T19:13:01;2.90;;;2.60;;
40555;SDS011;26250;45.422;11.100;2023-05-18T19:15:34;5.22;;;2.50;;
40555;SDS011;26250;45.422;11.100;2023-05-18T19:18:01;4.75;;;2.85;;
40555;SDS011;26250;45.422;11.100;2023-05-18T19:20:29;4.13;;;2.40;;
40555;SDS011;26250;45.422;11.100;2023-05-18T19:22:56;5.18;;;3.42;;
40555;SDS011;26250;45.422;11.100;2023-05-18T19:25:23;6.38;;;3.55;;
40555;SDS011;26250;45.422;11.100;2023-05-18T19:27:52;6.70;;;3.20;;
40555;SDS011;26250;45.422;11.100;2023-05-18T19:30:20;5.40;;;3.72;;
40555;SDS011;26250;45.422;11.100;2023-05-18T19:32:48;5.80;;;3.25;;
40555;SDS011;26250;45.422;11.100;2023-05-18T19:35:20;4.97;;;3.55;;
40555;SDS011;26250;45.422;11.100;2023-05-18T19:37:49;3.88;;;3.50;;
40555;SDS011;26250;45.422;11.100;2023-05-18T19:40:16;3.85;;;3.05;;
40555;SDS011;26250;45.422;11.100;2023-05-18T19:42:43;4.85;;;3.05;;
40555;SDS011;26250;45.422;11.100;2023-05-18T19:45:10;3.40;;;2.80;;
40555;SDS011;26250;45.422;11.100;2023-05-18T19:47:37;8.65;;;3.60;;
40555;SDS011;26250;45.422;11.100;2023-05-18T19:50:04;6.88;;;3.25;;
40555;SDS011;26250;45.422;11.100;2023-05-18T19:52:32;4.70;;;3.55;;
40555;SDS011;26250;45.422;11.100;2023-05-18T19:54:59;9.80;;;3.92;;
40555;SDS011;26250;45.422;11.100;2023-05-18T19:57:27;7.95;;;3.35;;
40555;SDS011;26250;45.422;11.100;2023-05-18T19:59:54;6.95;;;2.50;;
40555;SDS011;26250;45.422;11.100;2023-05-18T20:02:24;6.55;;;3.35;;
40555;SDS011;26250;45.422;11.100;2023-05-18T20:04:52;7.15;;;2.92;;
